CYKA

Details ICAO CYKA (YKA)
Name Kamloops
Region Canada
Timezone America/Vancouver (UTC-7.0)
Plans Departing 62
Arriving 82
Stats Elevation 1,133 ft / 345 m (AMSL)
Location 50.701875° -120.442709°
Runways 2
Magnetic Variation 15.997° E
Sunrise 2018-06-19 11:49:45 UTC / 2018-06-19 04:49:45 Local
Sunset 2018-06-20 04:19:07 UTC / 2018-06-19 21:19:07 Local
Advertisement - Login to hide

Runways

ID Width Length Bearing (true) Bearing (mag) Surface Threshold Offset Overrun Length
04 49 ft / 15 m 2,815 ft / 858 m 61.02° 45.02° Asphalt 686 ft / 209 m 0 ft / 0 m
08 148 ft / 45 m 5,999 ft / 1,828 m 103.28° 87.28° Asphalt 0 ft / 0 m 0 ft / 0 m
22 49 ft / 15 m 2,815 ft / 858 m 241.03° 225.03° Asphalt 0 ft / 0 m 0 ft / 0 m
26 148 ft / 45 m 5,999 ft / 1,828 m 283.30° 267.30° Asphalt 0 ft / 0 m 0 ft / 0 m

Approach Navaids

Runway Type Ident Frequency Range Bearing (true) Bearing (mag) Slope Elevation
26 Localiser XPP 109.90 MHz 18 nm / 33 km 285.00° 269.00° - 1,133 ft / 345 m (AMSL)

Map

Weather


0- 5 10 15 20 25 30 35+ Temperature / ° C

Clouds and Precipitation
Forecast for 2018-06-19 06:00 UTC. Updated 5 hours ago

Ground ~20,000 ft ~40,000 ft Winds

METAR

CYKA 190800Z 07003KT 060V140 40SM SKC 20/08 A2994 RMK SLP134 DENSITY ALT 2000FT

TAF

TAF CYKA 190638Z 1907/1919 10005KT P6SM SKC RMK NXT FCST BY 191300Z

Frequencies

Tower 123.00 MHz SHELL AERO CNTR
Warning: Do not use this data for real-world aviation or navigation. No guarantee of current accuracy is given.